Jack Holland — WDF3615 — position and weather

sailwx.info

Track history (hours):
 
Tides and Currents Weather Stations Pressure Air Temp Water Temp Dewpoint Dewpoint Depression Visibility Wind Speed Wind Dir Waves Ship Positions

Jack Holland

Owner: Norfolk Tug Company, Norfolk, VA. More information available from US FCC via Universal Licensing System and Coast Guard Vessel Documentation Center.

Last reported at 2014-Nov-25 08:33 UTC. Time now 2014-Nov-26 14:00 UTC.
Position N 38°51' W 076°26'.

Length 22 m; draft 2.5 m.

Type: Tug. MMSI: 367442020.

Date/timePositionNaut miles runAvg speedWind from/ knotsBaromVisibWave heightAir tempDewpointWater temp
2014-Nov-25 08:33N 38°51' W 076°26'9 9.0
2014-Nov-25 07:34N 38°60' W 076°23'10 9.0
2014-Nov-25 06:30N 39°09' W 076°25'8 8.2
2014-Nov-25 05:34N 39°14' W 076°33'2 1.8
2014-Nov-25 04:34N 39°15' W 076°35'0 0.0
2014-Nov-25 03:33N 39°15' W 076°35'0 0.0
2014-Nov-25 02:33N 39°15' W 076°35'0 0.0
2014-Nov-25 01:33N 39°15' W 076°35'0 0.0
2014-Nov-25 00:33N 39°15' W 076°35'0 0.0
2014-Nov-24 23:34N 39°15' W 076°35'0 0.0
2014-Nov-24 22:34N 39°15' W 076°35'0 0.0
2014-Nov-24 21:34N 39°15' W 076°35'0 0.0
2014-Nov-24 20:33N 39°15' W 076°35'0 0.0
2014-Nov-24 19:33N 39°15' W 076°35'0 0.0
2014-Nov-24 18:33N 39°15' W 076°35'0 0.0
2014-Nov-24 17:33N 39°15' W 076°35'0 0.0
2014-Nov-24 16:34N 39°15' W 076°35'0 0.0
2014-Nov-24 15:33N 39°15' W 076°35'0 0.0
2014-Nov-24 14:34N 39°15' W 076°35'0 0.0
2014-Nov-24 13:33N 39°15' W 076°35'0 0.0
2014-Nov-24 12:33N 39°15' W 076°35'0 0.0
2014-Nov-24 11:33N 39°15' W 076°35'0 0.0
2014-Nov-24 10:33N 39°15' W 076°35'0 0.0
2014-Nov-24 09:33N 39°15' W 076°35'0 0.0
2014-Nov-24 08:34N 39°15' W 076°35'0 0.0
2014-Nov-24 07:33N 39°15' W 076°35'0 0.0
2014-Nov-24 06:33N 39°15' W 076°35'0 0.0
2014-Nov-24 05:29N 39°15' W 076°35'0 0.0
2014-Nov-24 04:20N 39°15' W 076°35'0 0.0
2014-Nov-24 03:09N 39°15' W 076°35'0 0.0
2014-Nov-24 02:27N 39°15' W 076°35'0 0.0
2014-Nov-24 01:33N 39°15' W 076°35'0 0.0
2014-Nov-24 00:33N 39°15' W 076°35'0 0.0
2014-Nov-23 23:33N 39°15' W 076°35'0 0.0
2014-Nov-23 22:34N 39°15' W 076°35'1 0.8
2014-Nov-23 21:33N 39°15' W 076°36'6 6.4
2014-Nov-23 20:33N 39°12' W 076°29'7 6.0
2014-Nov-23 19:27N 39°06' W 076°24'7 5.5
2014-Nov-23 18:13N 38°60' W 076°23'  
2014-Nov-16 01:32N 38°01' W 076°15'5 5.5
2014-Nov-16 00:32N 38°06' W 076°16'49 5.5
2014-Nov-15 15:29N 38°55' W 076°25'6 5.9
2014-Nov-15 14:28N 39°01' W 076°23'5 5.4
2014-Nov-15 13:32N 39°06' W 076°24'6 5.6
2014-Nov-15 12:33N 39°11' W 076°27'3 3.2
2014-Nov-15 11:33N 39°13' W 076°30'0 0.1
2014-Nov-15 10:33N 39°13' W 076°30'0 0.0
2014-Nov-15 09:33N 39°13' W 076°30'0 0.0
2014-Nov-15 08:33N 39°13' W 076°30'  
Track history (hours):
 
Tides and Currents Weather Stations Pressure Air Temp Water Temp Dewpoint Dewpoint Depression Visibility Wind Speed Wind Dir Waves Ship Positions

Jack Holland

Owner: Norfolk Tug Company, Norfolk, VA. More information available from US FCC via Universal Licensing System and Coast Guard Vessel Documentation Center.

Last reported at 2014-Nov-25 08:33 UTC. Time now 2014-Nov-26 14:00 UTC.
Position N 38°51' W 076°26'.

Length 22 m; draft 2.5 m.

Type: Tug. MMSI: 367442020.

Date/timePositionNaut miles runAvg speedWind from/ knotsBaromVisibWave heightAir tempDewpointWater temp
2014-Nov-25 08:33N 38°51' W 076°26'9 9.0
2014-Nov-25 07:34N 38°60' W 076°23'10 9.0
2014-Nov-25 06:30N 39°09' W 076°25'8 8.2
2014-Nov-25 05:34N 39°14' W 076°33'2 1.8
2014-Nov-25 04:34N 39°15' W 076°35'0 0.0
2014-Nov-25 03:33N 39°15' W 076°35'0 0.0
2014-Nov-25 02:33N 39°15' W 076°35'0 0.0
2014-Nov-25 01:33N 39°15' W 076°35'0 0.0
2014-Nov-25 00:33N 39°15' W 076°35'0 0.0
2014-Nov-24 23:34N 39°15' W 076°35'0 0.0
2014-Nov-24 22:34N 39°15' W 076°35'0 0.0
2014-Nov-24 21:34N 39°15' W 076°35'0 0.0
2014-Nov-24 20:33N 39°15' W 076°35'0 0.0
2014-Nov-24 19:33N 39°15' W 076°35'0 0.0
2014-Nov-24 18:33N 39°15' W 076°35'0 0.0
2014-Nov-24 17:33N 39°15' W 076°35'0 0.0
2014-Nov-24 16:34N 39°15' W 076°35'0 0.0
2014-Nov-24 15:33N 39°15' W 076°35'0 0.0
2014-Nov-24 14:34N 39°15' W 076°35'0 0.0
2014-Nov-24 13:33N 39°15' W 076°35'0 0.0
2014-Nov-24 12:33N 39°15' W 076°35'0 0.0
2014-Nov-24 11:33N 39°15' W 076°35'0 0.0
2014-Nov-24 10:33N 39°15' W 076°35'0 0.0
2014-Nov-24 09:33N 39°15' W 076°35'0 0.0
2014-Nov-24 08:34N 39°15' W 076°35'0 0.0
2014-Nov-24 07:33N 39°15' W 076°35'0 0.0
2014-Nov-24 06:33N 39°15' W 076°35'0 0.0
2014-Nov-24 05:29N 39°15' W 076°35'0 0.0
2014-Nov-24 04:20N 39°15' W 076°35'0 0.0
2014-Nov-24 03:09N 39°15' W 076°35'0 0.0
2014-Nov-24 02:27N 39°15' W 076°35'0 0.0
2014-Nov-24 01:33N 39°15' W 076°35'0 0.0
2014-Nov-24 00:33N 39°15' W 076°35'0 0.0
2014-Nov-23 23:33N 39°15' W 076°35'0 0.0
2014-Nov-23 22:34N 39°15' W 076°35'1 0.8
2014-Nov-23 21:33N 39°15' W 076°36'6 6.4
2014-Nov-23 20:33N 39°12' W 076°29'7 6.0
2014-Nov-23 19:27N 39°06' W 076°24'7 5.5
2014-Nov-23 18:13N 38°60' W 076°23'  
2014-Nov-16 01:32N 38°01' W 076°15'5 5.5
2014-Nov-16 00:32N 38°06' W 076°16'49 5.5
2014-Nov-15 15:29N 38°55' W 076°25'6 5.9
2014-Nov-15 14:28N 39°01' W 076°23'5 5.4
2014-Nov-15 13:32N 39°06' W 076°24'6 5.6
2014-Nov-15 12:33N 39°11' W 076°27'3 3.2
2014-Nov-15 11:33N 39°13' W 076°30'0 0.1
2014-Nov-15 10:33N 39°13' W 076°30'0 0.0
2014-Nov-15 09:33N 39°13' W 076°30'0 0.0
2014-Nov-15 08:33N 39°13' W 076°30'  

Dump ship's entire track history